createdAt,value
2023-04-16T00:03:55.801Z,74.53
2023-04-16T00:09:00.847Z,74.54
2023-04-16T00:14:05.197Z,74.67
2023-04-16T00:19:16.974Z,75.18
2023-04-16T00:24:21.346Z,74.73
2023-04-16T00:29:27.583Z,75.16
2023-04-16T00:34:33.386Z,74.27
2023-04-16T00:39:37.528Z,74.79
2023-04-16T00:44:43.357Z,75.01
2023-04-16T00:49:49.753Z,75.47
2023-04-16T00:54:55.129Z,74.97
2023-04-16T01:00:01.047Z,76.14
2023-04-16T01:05:09.588Z,76.34
2023-04-16T01:10:13.791Z,75.74
2023-04-16T01:15:18.348Z,75.49
2023-04-16T01:20:24.080Z,76.08
2023-04-16T01:25:29.740Z,75.27
2023-04-16T01:30:33.874Z,75.17
2023-04-16T01:35:49.806Z,76.00
2023-04-16T01:40:59.591Z,75.78
2023-04-16T01:46:15.352Z,76.13
2023-04-16T01:51:19.717Z,75.85
2023-04-16T01:56:25.364Z,75.11
2023-04-16T02:01:30.306Z,74.78
2023-04-16T02:06:35.724Z,73.58
2023-04-16T02:11:42.325Z,74.13
2023-04-16T02:16:46.937Z,74.11
2023-04-16T02:22:04.848Z,74.01
2023-04-16T02:27:17.612Z,73.72
2023-04-16T02:32:22.360Z,74.11
2023-04-16T02:37:26.651Z,73.88
2023-04-16T02:42:32.048Z,74.67
2023-04-16T02:47:36.188Z,74.46
2023-04-16T02:52:40.614Z,74.61
2023-04-16T02:57:46.072Z,74.61
2023-04-16T03:02:50.218Z,74.18
2023-04-16T03:07:56.908Z,73.89
2023-04-16T03:13:02.557Z,74.05
2023-04-16T03:18:06.923Z,74.47
2023-04-16T03:23:10.979Z,74.45
2023-04-16T03:28:16.405Z,74.78
2023-04-16T03:33:21.253Z,75.77
2023-04-16T03:38:26.190Z,75.33
2023-04-16T03:43:34.226Z,74.95
2023-04-16T03:48:40.377Z,75.78
2023-04-16T03:53:45.020Z,75.65
2023-04-16T03:58:52.304Z,75.36
2023-04-16T04:03:57.366Z,73.81
2023-04-16T04:09:01.552Z,74.83
2023-04-16T04:14:08.339Z,74.76
2023-04-16T04:19:12.779Z,75.88
2023-04-16T04:24:16.856Z,75.34
2023-04-16T04:29:23.443Z,76.10
2023-04-16T04:34:27.836Z,75.39
2023-04-16T04:39:35.659Z,75.48
2023-04-16T04:44:41.445Z,75.83
2023-04-16T04:49:46.721Z,76.12
2023-04-16T04:54:50.793Z,74.75
2023-04-16T04:59:56.522Z,74.16
2023-04-16T05:05:00.910Z,74.59
2023-04-16T05:10:05.222Z,75.49
2023-04-16T05:15:12.129Z,75.63
2023-04-16T05:20:16.286Z,76.45
2023-04-16T05:25:21.091Z,75.73
2023-04-16T05:30:26.646Z,73.30
2023-04-16T05:35:30.774Z,75.01
2023-04-16T05:40:35.312Z,72.00
2023-04-16T05:45:41.499Z,70.29
2023-04-16T05:50:45.544Z,68.34
2023-04-16T05:55:49.752Z,66.64
2023-04-16T06:00:55.268Z,67.43
2023-04-16T06:05:59.442Z,67.06
2023-04-16T06:11:04.047Z,66.46
2023-04-16T06:16:10.578Z,66.84
2023-04-16T06:21:14.696Z,66.50
2023-04-16T06:26:21.178Z,66.10
2023-04-16T06:31:26.907Z,63.83
2023-04-16T06:36:31.352Z,63.58
2023-04-16T06:41:35.408Z,63.29
2023-04-16T06:46:41.060Z,61.13
2023-04-16T06:51:46.965Z,60.31
2023-04-16T06:56:51.311Z,59.19
2023-04-16T07:01:59.066Z,58.72
2023-04-16T07:07:03.214Z,61.32
2023-04-16T07:12:08.874Z,61.69
2023-04-16T07:17:14.591Z,62.15
2023-04-16T07:22:18.814Z,61.71
2023-04-16T07:27:22.920Z,60.46
2023-04-16T07:32:28.438Z,59.22
2023-04-16T07:37:32.908Z,59.14
2023-04-16T07:42:37.704Z,58.90
2023-04-16T07:47:43.189Z,58.11
2023-04-16T07:52:48.872Z,56.23
2023-04-16T07:57:56.050Z,55.13
2023-04-16T08:03:02.921Z,55.74
2023-04-16T08:08:07.378Z,54.46
2023-04-16T08:13:12.828Z,56.00
2023-04-16T08:18:18.375Z,54.15
2023-04-16T08:23:22.817Z,50.44
2023-04-16T08:28:27.667Z,48.87
2023-04-16T08:33:33.517Z,48.13
2023-04-16T08:38:37.920Z,47.25
2023-04-16T08:43:47.982Z,46.57
2023-04-16T08:48:56.124Z,43.39
2023-04-16T08:54:04.705Z,44.30
2023-04-16T08:59:11.007Z,44.71
2023-04-16T09:04:19.215Z,43.17
2023-04-16T09:09:24.009Z,42.55
2023-04-16T09:14:28.842Z,42.08
2023-04-16T09:19:34.842Z,41.30
2023-04-16T09:24:40.198Z,41.40
2023-04-16T09:29:44.364Z,40.73
2023-04-16T09:35:01.815Z,40.57
2023-04-16T09:40:07.126Z,40.10
2023-04-16T09:45:12.153Z,38.88
2023-04-16T09:50:20.878Z,37.83
2023-04-16T09:55:28.943Z,36.69
2023-04-16T10:00:33.217Z,35.55
2023-04-16T10:05:38.787Z,37.68
2023-04-16T10:10:43.232Z,40.01
2023-04-16T10:15:49.141Z,41.17
2023-04-16T10:20:54.920Z,41.39
2023-04-16T10:26:01.616Z,42.02
2023-04-16T10:31:08.395Z,43.07
2023-04-16T10:36:15.758Z,42.50
2023-04-16T10:41:21.501Z,43.40
2023-04-16T10:46:27.801Z,44.75
2023-04-16T10:51:36.011Z,45.07
2023-04-16T10:56:42.639Z,45.30
2023-04-16T11:01:47.910Z,46.20
2023-04-16T11:07:04.490Z,46.07
2023-04-16T11:12:13.109Z,46.03
2023-04-16T11:17:17.785Z,47.07
2023-04-16T11:22:23.377Z,47.63
2023-04-16T11:27:27.736Z,48.70
2023-04-16T11:32:33.537Z,49.38
2023-04-16T11:37:40.020Z,49.24
2023-04-16T11:42:44.524Z,48.64
2023-04-16T11:47:52.003Z,47.93
2023-04-16T11:53:04.843Z,46.45
2023-04-16T11:58:18.275Z,46.27
2023-04-16T12:03:43.526Z,47.31
2023-04-16T12:08:49.949Z,47.16
2023-04-16T12:14:10.856Z,46.02
2023-04-16T12:19:15.424Z,44.86
2023-04-16T12:24:22.806Z,45.20
2023-04-16T12:29:28.591Z,44.19
2023-04-16T12:34:48.415Z,43.07
2023-04-16T12:39:55.273Z,42.73
2023-04-16T12:44:59.736Z,41.24
2023-04-16T12:50:03.942Z,41.82
2023-04-16T12:55:10.518Z,39.53
2023-04-16T13:00:16.502Z,38.59
2023-04-16T13:05:20.727Z,38.74
2023-04-16T13:10:27.865Z,40.50
2023-04-16T13:15:32.619Z,42.71
2023-04-16T13:20:37.229Z,45.80
2023-04-16T13:25:43.342Z,51.63
2023-04-16T13:30:48.233Z,58.37
2023-04-16T13:35:52.540Z,61.59
2023-04-16T13:40:59.039Z,63.00
2023-04-16T13:46:03.134Z,65.63
2023-04-16T13:51:08.402Z,67.44
2023-04-16T13:56:14.180Z,67.46
2023-04-16T14:01:19.656Z,66.80
2023-04-16T14:06:25.033Z,67.94
2023-04-16T14:11:30.906Z,66.93
2023-04-16T14:16:35.391Z,65.09
2023-04-16T14:21:39.884Z,63.72
2023-04-16T14:26:47.388Z,63.46
2023-04-16T14:31:51.608Z,64.14
2023-04-16T14:36:57.193Z,63.60
2023-04-16T14:42:02.934Z,63.56
2023-04-16T14:47:08.737Z,62.70
2023-04-16T14:52:12.992Z,62.70
2023-04-16T14:57:18.501Z,60.90
2023-04-16T15:02:22.752Z,60.48
2023-04-16T15:07:28.259Z,59.99
2023-04-16T15:12:33.984Z,59.42
2023-04-16T15:17:38.275Z,59.93
2023-04-16T15:22:45.412Z,59.45
2023-04-16T15:27:51.786Z,57.86
2023-04-16T15:33:22.372Z,57.42
2023-04-16T15:38:29.308Z,57.31
2023-04-16T15:43:35.070Z,57.60
2023-04-16T15:48:39.834Z,58.80
2023-04-16T15:53:45.364Z,60.16
2023-04-16T15:58:51.504Z,60.99
2023-04-16T16:03:56.061Z,61.78
2023-04-16T16:09:00.630Z,64.39
2023-04-16T16:14:06.230Z,65.82
2023-04-16T16:19:11.378Z,66.54
2023-04-16T16:24:15.774Z,69.08
2023-04-16T16:29:21.609Z,71.23
2023-04-16T16:34:26.264Z,71.88
2023-04-16T16:39:31.344Z,71.63
2023-04-16T16:44:37.674Z,69.07
2023-04-16T16:49:43.136Z,68.70
2023-04-16T16:54:48.115Z,68.55
2023-04-16T16:59:54.537Z,67.09
2023-04-16T17:04:59.491Z,66.17
2023-04-16T17:10:06.070Z,65.51
2023-04-16T17:15:13.594Z,64.91
2023-04-16T17:20:18.802Z,64.55
2023-04-16T17:25:22.990Z,66.39
2023-04-16T17:30:29.116Z,68.17
2023-04-16T17:35:35.672Z,70.17
2023-04-16T17:40:40.122Z,70.94
2023-04-16T17:45:46.179Z,71.50
2023-04-16T17:50:50.982Z,71.21
2023-04-16T17:55:56.974Z,71.95
2023-04-16T18:01:03.825Z,72.28
2023-04-16T18:06:07.913Z,72.69
2023-04-16T18:11:12.452Z,72.56
2023-04-16T18:16:19.282Z,72.68
2023-04-16T18:21:23.409Z,72.26
2023-04-16T18:26:29.853Z,71.27
2023-04-16T18:31:36.012Z,70.88
2023-04-16T18:36:40.322Z,71.53
2023-04-16T18:41:47.946Z,71.80
2023-04-16T18:46:53.800Z,71.56
2023-04-16T18:51:58.458Z,71.61
2023-04-16T18:57:03.556Z,72.30
2023-04-16T19:02:16.979Z,72.52
2023-04-16T19:07:21.024Z,73.04
2023-04-16T19:12:25.320Z,72.47
2023-04-16T19:17:31.288Z,72.76
2023-04-16T19:22:35.643Z,73.68
2023-04-16T19:27:39.948Z,73.82
2023-04-16T19:32:48.209Z,74.29
2023-04-16T19:37:52.890Z,74.90
2023-04-16T19:42:57.474Z,74.40
2023-04-16T19:48:03.134Z,73.83
2023-04-16T19:53:07.200Z,74.98
2023-04-16T19:58:11.492Z,74.89
2023-04-16T20:03:17.388Z,74.29
2023-04-16T20:08:22.094Z,73.48
2023-04-16T20:13:26.480Z,73.45
2023-04-16T20:18:32.459Z,73.28
2023-04-16T20:23:36.723Z,73.03
2023-04-16T20:28:41.086Z,74.07
2023-04-16T20:33:46.598Z,75.24
2023-04-16T20:38:53.784Z,74.60
2023-04-16T20:44:05.496Z,74.59
2023-04-16T20:49:14.140Z,75.46
2023-04-16T20:54:18.256Z,75.75
2023-04-16T20:59:22.309Z,75.55
2023-04-16T21:04:28.368Z,76.47
2023-04-16T21:09:32.707Z,76.32
2023-04-16T21:14:37.915Z,76.60
2023-04-16T21:19:44.039Z,76.90
2023-04-16T21:24:48.079Z,77.00
2023-04-16T21:29:53.351Z,76.73
2023-04-16T21:34:59.244Z,76.69
2023-04-16T21:40:04.949Z,76.35
2023-04-16T21:45:10.472Z,75.98
2023-04-16T21:50:17.317Z,75.77
2023-04-16T21:55:22.895Z,74.98
2023-04-16T22:00:26.930Z,74.72
2023-04-16T22:05:33.692Z,74.41
2023-04-16T22:10:38.236Z,73.96
2023-04-16T22:15:42.444Z,73.49
2023-04-16T22:20:50.990Z,73.52
2023-04-16T22:25:57.718Z,72.76
2023-04-16T22:31:01.982Z,72.34
2023-04-16T22:36:09.205Z,72.55
2023-04-16T22:41:13.491Z,72.10
2023-04-16T22:46:20.315Z,72.75
2023-04-16T22:51:26.329Z,73.23
2023-04-16T22:56:31.200Z,73.31
2023-04-16T23:01:36.575Z,73.88
2023-04-16T23:06:42.237Z,72.44
2023-04-16T23:11:46.622Z,72.86
2023-04-16T23:16:50.891Z,72.92
2023-04-16T23:21:56.615Z,73.31
2023-04-16T23:27:01.242Z,73.73
2023-04-16T23:32:06.342Z,74.39
2023-04-16T23:37:11.980Z,75.10
2023-04-16T23:42:16.062Z,75.42
2023-04-16T23:47:20.175Z,75.42
2023-04-16T23:52:26.029Z,75.11
2023-04-16T23:57:30.237Z,75.08
